Time,TemperatureF,DewpointF,PressureIn,WindDirection,WindDirectionDegrees,WindSpeedMPH,WindSpeedGustMPH,Humidity,HourlyPrecipIn,Conditions,Clouds,dailyrainin,SoftwareType,DateUTC
2013-01-22 00:00:00,27.5,23.9,29.85,NW,321,18.0,21.0,86,0.00,,,0.00,meteohub,2013-01-22 05:00:00,
2013-01-22 00:01:00,27.7,24.1,29.85,NW,308,17.0,21.0,86,0.00,,,0.00,meteohub,2013-01-22 05:01:00,
2013-01-22 00:02:00,27.5,23.9,29.86,NW,314,16.0,21.0,86,0.00,,,0.00,meteohub,2013-01-22 05:02:00,
2013-01-22 00:07:00,27.5,23.9,29.85,NNW,338,13.0,20.0,86,0.00,,,0.00,meteohub,2013-01-22 05:07:00,
2013-01-22 00:12:00,27.3,23.7,29.85,NNW,327,10.0,20.0,86,0.00,,,0.00,meteohub,2013-01-22 05:12:00,
2013-01-22 00:17:00,27.7,23.5,29.86,NW,310,10.0,18.0,84,0.00,,,0.00,meteohub,2013-01-22 05:17:00,
2013-01-22 00:22:00,27.9,23.7,29.86,NW,307,10.0,16.0,84,0.00,,,0.00,meteohub,2013-01-22 05:22:00,
2013-01-22 00:27:00,28.0,23.5,29.86,WNW,288,16.0,16.0,83,0.00,,,0.00,meteohub,2013-01-22 05:27:00,
2013-01-22 00:32:00,28.0,23.2,29.86,NW,321,10.0,16.0,82,0.00,,,0.00,meteohub,2013-01-22 05:32:00,
2013-01-22 00:37:00,28.0,23.0,29.86,NW,308,16.0,16.0,81,0.00,,,0.00,meteohub,2013-01-22 05:37:00,
2013-01-22 00:42:00,28.4,23.4,29.86,NW,304,14.0,17.0,81,0.00,,,0.00,meteohub,2013-01-22 05:42:00,
2013-01-22 00:47:00,28.6,23.7,29.85,NW,313,14.0,17.0,82,0.00,,,0.00,meteohub,2013-01-22 05:47:00,
2013-01-22 00:52:00,28.6,22.8,29.85,NNW,330,14.0,17.0,79,0.00,,,0.00,meteohub,2013-01-22 05:52:00,
2013-01-22 00:57:00,28.6,22.8,29.85,NNW,328,13.0,19.0,79,0.00,,,0.00,meteohub,2013-01-22 05:57:00,
2013-01-22 01:02:00,28.6,22.3,29.86,NNW,334,16.0,19.0,77,0.00,,,0.00,meteohub,2013-01-22 06:02:00,
2013-01-22 01:07:00,28.8,23.0,29.85,NNW,334,11.0,18.0,79,0.00,,,0.00,meteohub,2013-01-22 06:07:00,
2013-01-22 01:12:00,28.6,22.3,29.85,NW,319,12.0,18.0,77,0.00,,,0.00,meteohub,2013-01-22 06:12:00,
2013-01-22 01:17:00,28.8,22.1,29.85,NW,314,14.0,18.0,76,0.00,,,0.00,meteohub,2013-01-22 06:17:00,
2013-01-22 01:22:00,28.6,21.9,29.85,NW,304,14.0,18.0,76,0.00,,,0.00,meteohub,2013-01-22 06:22:00,
2013-01-22 01:27:00,28.8,21.9,29.85,WNW,300,15.0,18.0,75,0.00,,,0.00,meteohub,2013-01-22 06:27:00,
2013-01-22 01:32:00,28.8,21.2,29.85,NW,308,14.0,18.0,73,0.00,,,0.00,meteohub,2013-01-22 06:32:00,
2013-01-22 01:37:00,28.9,22.6,29.84,WNW,299,19.0,19.0,77,0.00,,,0.00,meteohub,2013-01-22 06:37:00,
2013-01-22 01:42:00,28.9,21.4,29.84,NW,323,19.0,20.0,73,0.00,,,0.00,meteohub,2013-01-22 06:42:00,
2013-01-22 01:47:00,28.9,20.7,29.85,WNW,295,19.0,21.0,71,0.00,,,0.00,meteohub,2013-01-22 06:47:00,
2013-01-22 01:52:00,28.9,19.0,29.85,WNW,301,20.0,23.0,66,0.00,,,0.00,meteohub,2013-01-22 06:52:00,
2013-01-22 01:57:00,29.1,20.8,29.85,WNW,300,16.0,24.0,71,0.00,,,0.00,meteohub,2013-01-22 06:57:00,
2013-01-22 02:02:00,28.9,18.3,29.85,WNW,297,18.0,24.0,64,0.00,,,0.00,meteohub,2013-01-22 07:02:00,
2013-01-22 02:07:00,29.1,20.3,29.85,WNW,301,23.0,27.0,69,0.00,,,0.00,meteohub,2013-01-22 07:07:00,
2013-01-22 02:12:00,28.9,19.4,29.85,NW,325,22.0,27.0,67,0.00,,,0.00,meteohub,2013-01-22 07:12:00,
2013-01-22 02:17:00,29.1,20.5,29.86,WNW,290,23.0,27.0,70,0.00,,,0.00,meteohub,2013-01-22 07:17:00,
2013-01-22 02:22:00,28.8,18.1,29.86,NW,304,22.0,29.0,64,0.00,,,0.00,meteohub,2013-01-22 07:22:00,
2013-01-22 02:27:00,28.2,18.7,29.85,WNW,302,22.0,29.0,67,0.00,,,0.00,meteohub,2013-01-22 07:27:00,
2013-01-22 02:32:00,28.2,18.7,29.85,WNW,302,22.0,29.0,67,0.00,,,0.00,meteohub,2013-01-22 07:32:00,
2013-01-22 02:37:00,28.2,18.7,29.86,North,-999,-999.0,27.0,67,0.00,,,0.00,meteohub,2013-01-22 07:37:00,
2013-01-22 07:34:00,22.3,10.9,29.97,North,-999,-999.0,-999.0,61,-99.99,,,0.00,meteohub,2013-01-22 12:34:00,
2013-01-22 07:39:00,22.5,13.1,29.98,North,-999,-999.0,-999.0,67,-99.99,,,0.00,meteohub,2013-01-22 12:39:00,
2013-01-22 07:44:00,21.9,10.9,29.98,NW,323,29.0,-999.0,62,0.00,,,0.00,meteohub,2013-01-22 12:44:00,
2013-01-22 07:49:00,22.1,11.5,29.98,NW,315,37.0,39.0,63,0.00,,,0.00,meteohub,2013-01-22 12:49:00,
2013-01-22 07:54:00,21.9,10.2,29.99,NNW,328,27.0,39.0,60,0.00,,,0.00,meteohub,2013-01-22 12:54:00,
2013-01-22 07:59:00,22.1,12.6,29.98,NW,319,33.0,39.0,66,0.00,,,0.00,meteohub,2013-01-22 12:59:00,
2013-01-22 08:05:00,22.3,9.7,29.99,NNW,344,31.0,40.0,58,0.00,,,0.00,meteohub,2013-01-22 13:05:00,
2013-01-22 08:10:00,22.3,10.6,29.99,NNW,338,30.0,40.0,60,0.00,,,0.00,meteohub,2013-01-22 13:10:00,
2013-01-22 08:15:00,21.9,9.0,29.99,NW,323,30.0,37.0,57,0.00,,,0.00,meteohub,2013-01-22 13:15:00,
2013-01-22 08:20:00,22.3,13.3,30.00,NNW,327,31.0,39.0,68,0.00,,,0.00,meteohub,2013-01-22 13:20:00,
2013-01-22 08:25:00,21.9,10.9,30.00,NNW,332,33.0,39.0,62,0.00,,,0.00,meteohub,2013-01-22 13:25:00,
2013-01-22 08:30:00,21.7,11.1,30.00,NNW,328,31.0,39.0,63,0.00,,,0.00,meteohub,2013-01-22 13:30:00,
2013-01-22 08:35:00,21.6,9.9,30.01,NNW,335,30.0,39.0,60,0.00,,,0.00,meteohub,2013-01-22 13:35:00,
2013-01-22 08:40:00,21.7,9.7,30.01,NW,315,28.0,39.0,59,0.00,,,0.00,meteohub,2013-01-22 13:40:00,
2013-01-22 08:45:00,21.9,10.6,30.01,NW,312,28.0,38.0,61,0.00,,,0.00,meteohub,2013-01-22 13:45:00,
2013-01-22 08:50:00,21.6,8.6,30.02,NW,325,26.0,38.0,57,0.00,,,0.00,meteohub,2013-01-22 13:50:00,
2013-01-22 08:55:00,21.9,10.6,30.02,WNW,302,30.0,37.0,61,0.00,,,0.00,meteohub,2013-01-22 13:55:00,
2013-01-22 09:00:00,21.9,11.3,30.02,NNW,327,26.0,37.0,63,0.00,,,0.00,meteohub,2013-01-22 14:00:00,
2013-01-22 09:05:00,21.9,10.6,30.03,NW,315,28.0,37.0,61,0.00,,,0.00,meteohub,2013-01-22 14:05:00,
2013-01-22 09:10:00,21.6,8.2,30.02,WNW,300,26.0,38.0,56,0.00,,,0.00,meteohub,2013-01-22 14:10:00,
2013-01-22 09:15:00,21.6,8.6,30.03,WNW,299,32.0,38.0,57,0.00,,,0.00,meteohub,2013-01-22 14:15:00,
2013-01-22 09:20:00,21.7,9.7,30.03,WNW,302,30.0,40.0,59,0.00,,,0.00,meteohub,2013-01-22 14:20:00,
2013-01-22 09:25:00,21.7,10.0,30.03,NW,316,35.0,40.0,60,0.00,,,0.00,meteohub,2013-01-22 14:25:00,
2013-01-22 09:30:00,21.9,9.3,30.03,WNW,300,37.0,40.0,58,0.00,,,0.00,meteohub,2013-01-22 14:30:00,
2013-01-22 09:35:00,21.6,8.2,30.03,NW,310,24.0,40.0,56,0.00,,,0.00,meteohub,2013-01-22 14:35:00,
2013-01-22 09:40:00,21.9,8.6,30.03,NNW,338,25.0,40.0,56,0.00,,,0.00,meteohub,2013-01-22 14:40:00,
2013-01-22 09:45:00,22.1,8.4,30.03,NW,319,33.0,39.0,55,0.00,,,0.00,meteohub,2013-01-22 14:45:00,
2013-01-22 09:50:00,21.9,9.3,30.04,NW,321,32.0,37.0,58,0.00,,,0.00,meteohub,2013-01-22 14:50:00,
2013-01-22 09:55:00,21.9,9.0,30.04,WNW,295,27.0,37.0,57,0.00,,,0.00,meteohub,2013-01-22 14:55:00,
2013-01-22 10:00:00,22.3,9.3,30.04,North,354,22.0,37.0,57,0.00,,,0.00,meteohub,2013-01-22 15:00:00,
2013-01-22 10:05:00,22.1,8.4,30.04,WNW,293,30.0,35.0,55,0.00,,,0.00,meteohub,2013-01-22 15:05:00,
2013-01-22 10:10:00,22.5,9.9,30.04,NW,319,26.0,37.0,58,0.00,,,0.00,meteohub,2013-01-22 15:10:00,
2013-01-22 10:15:00,21.9,6.6,30.04,WNW,297,23.0,37.0,51,0.00,,,0.00,meteohub,2013-01-22 15:15:00,
2013-01-22 10:20:00,22.3,8.2,30.04,NW,310,29.0,37.0,54,0.00,,,0.00,meteohub,2013-01-22 15:20:00,
2013-01-22 10:25:00,22.1,7.5,30.04,NW,310,26.0,34.0,53,0.00,,,0.00,meteohub,2013-01-22 15:25:00,
2013-01-22 10:30:00,22.1,9.1,30.04,NW,315,25.0,35.0,57,0.00,,,0.00,meteohub,2013-01-22 15:30:00,
2013-01-22 10:35:00,22.3,7.0,30.04,WNW,302,26.0,38.0,51,0.00,,,0.00,meteohub,2013-01-22 15:35:00,
2013-01-22 10:40:00,21.9,8.2,30.04,NW,316,22.0,38.0,55,0.00,,,0.00,meteohub,2013-01-22 15:40:00,
2013-01-22 10:45:00,22.3,9.3,30.04,WNW,298,38.0,38.0,57,0.00,,,0.00,meteohub,2013-01-22 15:45:00,
2013-01-22 10:50:00,21.9,7.3,30.04,WNW,291,24.0,38.0,53,0.00,,,0.00,meteohub,2013-01-22 15:50:00,
2013-01-22 10:55:00,21.9,7.3,30.04,NW,309,24.0,38.0,53,0.00,,,0.00,meteohub,2013-01-22 15:55:00,
2013-01-22 11:00:00,21.9,6.6,30.04,WNW,298,20.0,38.0,51,0.00,,,0.00,meteohub,2013-01-22 16:00:00,
2013-01-22 11:05:00,22.1,7.5,30.03,NW,316,25.0,36.0,53,0.00,,,0.00,meteohub,2013-01-22 16:05:00,
2013-01-22 11:10:00,22.5,7.5,30.04,WNW,287,28.0,36.0,52,0.00,,,0.00,meteohub,2013-01-22 16:10:00,
2013-01-22 11:15:00,22.5,8.8,30.04,WNW,291,34.0,35.0,55,0.00,,,0.00,meteohub,2013-01-22 16:15:00,
2013-01-22 11:20:00,22.3,7.0,30.04,West,276,32.0,40.0,51,0.00,,,0.00,meteohub,2013-01-22 16:20:00,
2013-01-22 11:25:00,22.5,7.0,30.03,NW,308,32.0,40.0,51,0.00,,,0.00,meteohub,2013-01-22 16:25:00,
2013-01-22 11:30:00,22.5,7.0,30.03,WNW,294,34.0,40.0,51,0.00,,,0.00,meteohub,2013-01-22 16:30:00,
2013-01-22 11:35:00,22.3,5.5,30.03,WNW,290,30.0,40.0,48,0.00,,,0.00,meteohub,2013-01-22 16:35:00,
2013-01-22 11:40:00,22.3,7.0,30.03,NW,306,27.0,42.0,51,0.00,,,0.00,meteohub,2013-01-22 16:40:00,
2013-01-22 11:45:00,21.9,3.4,30.03,WNW,298,30.0,42.0,44,0.00,,,0.00,meteohub,2013-01-22 16:45:00,
2013-01-22 11:51:00,22.1,6.8,30.03,WNW,291,35.0,42.0,51,0.00,,,0.00,meteohub,2013-01-22 16:51:00,
2013-01-22 11:55:00,22.3,8.6,30.03,WNW,293,31.0,42.0,55,0.00,,,0.00,meteohub,2013-01-22 16:55:00,
2013-01-22 12:00:00,21.9,7.9,30.03,WNW,298,26.0,39.0,54,0.00,,,0.00,meteohub,2013-01-22 17:00:00,
2013-01-22 12:06:00,21.9,5.2,30.03,West,273,35.0,39.0,48,0.00,,,0.00,meteohub,2013-01-22 17:06:00,
2013-01-22 12:11:00,22.1,8.1,30.03,WNW,285,27.0,39.0,54,0.00,,,0.00,meteohub,2013-01-22 17:11:00,
2013-01-22 12:16:00,21.9,7.3,30.03,West,270,25.0,39.0,53,0.00,,,0.00,meteohub,2013-01-22 17:16:00,
2013-01-22 12:21:00,21.9,6.6,30.03,WNW,291,26.0,39.0,51,0.00,,,0.00,meteohub,2013-01-22 17:21:00,
2013-01-22 12:26:00,21.7,6.4,30.02,NW,304,27.0,39.0,51,0.00,,,0.00,meteohub,2013-01-22 17:26:00,
2013-01-22 12:31:00,21.7,5.5,30.02,NW,310,30.0,38.0,49,0.00,,,0.00,meteohub,2013-01-22 17:31:00,
2013-01-22 12:36:00,22.1,6.8,30.02,West,281,30.0,38.0,51,0.00,,,0.00,meteohub,2013-01-22 17:36:00,
2013-01-22 12:41:00,21.7,6.4,30.02,WNW,300,27.0,38.0,51,0.00,,,0.00,meteohub,2013-01-22 17:41:00,
2013-01-22 12:46:00,21.9,7.3,30.02,West,263,37.0,38.0,53,0.00,,,0.00,meteohub,2013-01-22 17:46:00,
2013-01-22 12:51:00,21.7,5.9,30.02,WNW,299,34.0,41.0,50,0.00,,,0.00,meteohub,2013-01-22 17:51:00,
2013-01-22 12:56:00,22.1,7.5,30.02,WNW,284,34.0,41.0,53,0.00,,,0.00,meteohub,2013-01-22 17:56:00,
2013-01-22 13:01:00,21.6,3.9,30.02,NW,304,24.0,41.0,46,0.00,,,0.00,meteohub,2013-01-22 18:01:00,
2013-01-22 13:06:00,21.7,4.6,30.02,WNW,289,32.0,39.0,47,0.00,,,0.00,meteohub,2013-01-22 18:06:00,
2013-01-22 13:11:00,21.6,5.4,30.01,NW,319,24.0,39.0,49,0.00,,,0.00,meteohub,2013-01-22 18:11:00,
2013-01-22 13:16:00,21.9,5.2,30.01,NW,312,31.0,39.0,48,0.00,,,0.00,meteohub,2013-01-22 18:16:00,
2013-01-22 13:21:00,21.9,5.2,30.01,NW,315,28.0,37.0,48,0.00,,,0.00,meteohub,2013-01-22 18:21:00,
2013-01-22 13:27:00,21.9,6.1,30.01,NW,304,24.0,37.0,50,0.00,,,0.00,meteohub,2013-01-22 18:27:00,
2013-01-22 13:32:00,21.9,5.7,30.01,WNW,287,25.0,37.0,49,0.00,,,0.00,meteohub,2013-01-22 18:32:00,
2013-01-22 13:37:00,21.9,5.2,30.02,NW,305,26.0,36.0,48,0.00,,,0.00,meteohub,2013-01-22 18:37:00,
2013-01-22 13:42:00,22.1,6.3,30.02,WNW,293,28.0,40.0,50,0.00,,,0.00,meteohub,2013-01-22 18:42:00,
2013-01-22 13:47:00,22.1,5.4,30.02,WNW,300,25.0,40.0,48,0.00,,,0.00,meteohub,2013-01-22 18:47:00,
2013-01-22 13:52:00,21.9,5.7,30.01,WNW,301,26.0,40.0,49,0.00,,,0.00,meteohub,2013-01-22 18:52:00,
2013-01-22 13:57:00,21.9,5.7,30.02,NW,310,25.0,38.0,49,0.00,,,0.00,meteohub,2013-01-22 18:57:00,
2013-01-22 14:02:00,22.5,7.0,30.02,WNW,291,29.0,38.0,51,0.00,,,0.00,meteohub,2013-01-22 19:02:00,
2013-01-22 14:07:00,22.3,6.4,30.02,WSW,246,26.0,40.0,50,0.00,,,0.00,meteohub,2013-01-22 19:07:00,
2013-01-22 14:12:00,22.5,7.0,30.02,WNW,291,30.0,40.0,51,0.00,,,0.00,meteohub,2013-01-22 19:12:00,
2013-01-22 14:17:00,22.3,6.4,30.02,NW,311,33.0,40.0,50,0.00,,,0.00,meteohub,2013-01-22 19:17:00,
2013-01-22 14:22:00,21.7,7.2,30.02,NW,309,27.0,38.0,53,0.00,,,0.00,meteohub,2013-01-22 19:22:00,
2013-01-22 14:27:00,21.7,5.9,30.03,NW,321,25.0,38.0,50,0.00,,,0.00,meteohub,2013-01-22 19:27:00,
2013-01-22 14:32:00,21.9,7.3,30.03,WNW,283,27.0,38.0,53,0.00,,,0.00,meteohub,2013-01-22 19:32:00,
2013-01-22 14:37:00,21.9,7.9,30.03,NW,304,34.0,35.0,54,0.00,,,0.00,meteohub,2013-01-22 19:37:00,
2013-01-22 14:42:00,21.4,5.5,30.04,WNW,301,31.0,37.0,50,0.00,,,0.00,meteohub,2013-01-22 19:42:00,
2013-01-22 14:47:00,21.7,7.7,30.04,NW,308,28.0,42.0,54,0.00,,,0.00,meteohub,2013-01-22 19:47:00,
2013-01-22 14:53:00,21.4,2.3,30.04,WNW,298,29.0,42.0,43,0.00,,,0.00,meteohub,2013-01-22 19:53:00,
2013-01-22 14:57:00,21.0,3.6,30.04,NW,316,30.0,40.0,46,0.00,,,0.00,meteohub,2013-01-22 19:57:00,
2013-01-22 15:03:00,21.4,5.2,30.04,NW,315,30.0,40.0,49,0.00,,,0.00,meteohub,2013-01-22 20:03:00,
2013-01-22 15:08:00,21.6,3.9,30.04,West,276,25.0,40.0,46,0.00,,,0.00,meteohub,2013-01-22 20:08:00,
2013-01-22 15:13:00,21.4,7.0,30.04,WNW,291,34.0,40.0,53,0.00,,,0.00,meteohub,2013-01-22 20:13:00,
2013-01-22 15:18:00,21.4,5.5,30.04,NW,308,30.0,40.0,50,0.00,,,0.00,meteohub,2013-01-22 20:18:00,
2013-01-22 15:23:00,21.4,4.8,30.04,NW,316,19.0,40.0,48,0.00,,,0.00,meteohub,2013-01-22 20:23:00,
2013-01-22 15:28:00,21.6,5.7,30.05,WNW,283,28.0,37.0,50,0.00,,,0.00,meteohub,2013-01-22 20:28:00,
2013-01-22 15:33:00,21.6,5.7,30.05,WNW,298,25.0,35.0,50,0.00,,,0.00,meteohub,2013-01-22 20:33:00,
2013-01-22 15:38:00,21.6,6.3,30.05,WNW,302,33.0,38.0,51,0.00,,,0.00,meteohub,2013-01-22 20:38:00,
2013-01-22 15:43:00,21.4,5.5,30.05,SW,233,24.0,38.0,50,0.00,,,0.00,meteohub,2013-01-22 20:43:00,
2013-01-22 15:48:00,21.7,6.8,30.05,WNW,295,22.0,37.0,52,0.00,,,0.00,meteohub,2013-01-22 20:48:00,
2013-01-22 15:53:00,21.6,6.3,30.05,WNW,298,33.0,37.0,51,0.00,,,0.00,meteohub,2013-01-22 20:53:00,
2013-01-22 15:58:00,21.4,3.7,30.06,WNW,300,23.0,33.0,46,0.00,,,0.00,meteohub,2013-01-22 20:58:00,
2013-01-22 16:03:00,21.6,5.4,30.06,WNW,295,22.0,36.0,49,0.00,,,0.00,meteohub,2013-01-22 21:03:00,
2013-01-22 16:08:00,21.9,7.0,30.06,WNW,287,23.0,39.0,52,0.00,,,0.00,meteohub,2013-01-22 21:08:00,
2013-01-22 16:13:00,22.3,9.0,30.06,WNW,295,25.0,39.0,56,0.00,,,0.00,meteohub,2013-01-22 21:13:00,
2013-01-22 16:18:00,21.9,7.3,30.06,NW,304,32.0,39.0,53,0.00,,,0.00,meteohub,2013-01-22 21:18:00,
2013-01-22 16:23:00,21.9,7.9,30.06,WNW,300,26.0,38.0,54,0.00,,,0.00,meteohub,2013-01-22 21:23:00,
2013-01-22 16:28:00,21.7,6.8,30.07,WNW,295,23.0,38.0,52,0.00,,,0.00,meteohub,2013-01-22 21:28:00,
2013-01-22 16:31:00,21.6,7.2,30.07,WNW,295,24.0,33.0,53,0.00,,,0.00,meteohub,2013-01-22 21:31:00,
2013-01-22 16:36:00,21.7,7.2,30.07,WNW,293,22.0,33.0,53,0.00,,,0.00,meteohub,2013-01-22 21:36:00,
2013-01-22 16:41:00,21.7,5.5,30.07,WNW,294,22.0,33.0,49,0.00,,,0.00,meteohub,2013-01-22 21:41:00,
2013-01-22 16:46:00,21.9,4.8,30.08,NW,307,24.0,32.0,47,0.00,,,0.00,meteohub,2013-01-22 21:46:00,
2013-01-22 16:51:00,21.9,6.1,30.08,NW,315,29.0,33.0,50,0.00,,,0.00,meteohub,2013-01-22 21:51:00,
2013-01-22 16:56:00,21.9,9.0,30.08,NW,308,19.0,34.0,57,0.00,,,0.00,meteohub,2013-01-22 21:56:00,
2013-01-22 17:01:00,21.6,5.4,30.09,WNW,299,29.0,34.0,49,0.00,,,0.00,meteohub,2013-01-22 22:01:00,
2013-01-22 17:06:00,21.4,4.8,30.09,NW,326,24.0,35.0,48,0.00,,,0.00,meteohub,2013-01-22 22:06:00,
2013-01-22 17:11:00,21.7,6.4,30.09,NW,307,17.0,35.0,51,0.00,,,0.00,meteohub,2013-01-22 22:11:00,
2013-01-22 17:16:00,22.1,8.4,30.10,NNW,328,29.0,35.0,55,0.00,,,0.00,meteohub,2013-01-22 22:16:00,
2013-01-22 17:21:00,21.7,6.4,30.10,NW,306,23.0,35.0,51,0.00,,,0.00,meteohub,2013-01-22 22:21:00,
2013-01-22 17:26:00,21.7,5.9,30.10,WNW,288,24.0,35.0,50,0.00,,,0.00,meteohub,2013-01-22 22:26:00,
2013-01-22 17:31:00,21.6,3.6,30.11,WNW,299,21.0,35.0,45,0.00,,,0.00,meteohub,2013-01-22 22:31:00,
2013-01-22 17:37:00,21.7,6.4,30.11,WNW,300,26.0,34.0,51,0.00,,,0.00,meteohub,2013-01-22 22:37:00,
2013-01-22 17:42:00,21.7,4.6,30.12,NW,308,21.0,34.0,47,0.00,,,0.00,meteohub,2013-01-22 22:42:00,
2013-01-22 17:47:00,21.6,3.9,30.12,WNW,289,23.0,35.0,46,0.00,,,0.00,meteohub,2013-01-22 22:47:00,
2013-01-22 17:52:00,21.6,7.5,30.12,WNW,299,22.0,35.0,54,0.00,,,0.00,meteohub,2013-01-22 22:52:00,
2013-01-22 17:57:00,21.9,8.2,30.12,NW,307,28.0,35.0,55,0.00,,,0.00,meteohub,2013-01-22 22:57:00,
2013-01-22 18:02:00,21.6,6.3,30.12,NW,326,24.0,40.0,51,0.00,,,0.00,meteohub,2013-01-22 23:02:00,
2013-01-22 18:07:00,21.7,6.8,30.13,NW,316,23.0,40.0,52,0.00,,,0.00,meteohub,2013-01-22 23:07:00,
2013-01-22 18:12:00,21.4,4.8,30.13,NW,315,21.0,35.0,48,0.00,,,0.00,meteohub,2013-01-22 23:12:00,
2013-01-22 18:17:00,21.4,4.8,30.13,WNW,283,34.0,35.0,48,0.00,,,0.00,meteohub,2013-01-22 23:17:00,
2013-01-22 18:22:00,21.4,7.0,30.14,NW,314,24.0,37.0,53,0.00,,,0.00,meteohub,2013-01-22 23:22:00,
2013-01-22 18:27:00,21.6,6.3,30.14,WNW,295,28.0,37.0,51,0.00,,,0.00,meteohub,2013-01-22 23:27:00,
2013-01-22 18:32:00,21.4,4.8,30.14,WNW,297,23.0,37.0,48,0.00,,,0.00,meteohub,2013-01-22 23:32:00,
2013-01-22 18:37:00,21.2,5.5,30.14,NW,311,32.0,36.0,50,0.00,,,0.00,meteohub,2013-01-22 23:37:00,
2013-01-22 18:42:00,21.0,4.8,30.14,NW,307,26.0,38.0,49,0.00,,,0.00,meteohub,2013-01-22 23:42:00,
2013-01-22 18:47:00,21.6,7.5,30.14,NNW,330,27.0,38.0,54,0.00,,,0.00,meteohub,2013-01-22 23:47:00,
2013-01-22 18:52:00,21.4,6.4,30.15,WNW,299,29.0,35.0,52,0.00,,,0.00,meteohub,2013-01-22 23:52:00,
2013-01-22 18:57:00,21.0,5.7,30.15,WNW,293,31.0,39.0,51,0.00,,,0.00,meteohub,2013-01-22 23:57:00,
2013-01-22 19:02:00,21.4,6.4,30.15,NW,307,26.0,39.0,52,0.00,,,0.00,meteohub,2013-01-23 00:02:00,
2013-01-22 19:07:00,21.4,2.8,30.16,NW,313,29.0,39.0,44,0.00,,,0.00,meteohub,2013-01-23 00:07:00,
2013-01-22 19:12:00,21.0,4.5,30.15,NW,316,26.0,36.0,48,0.00,,,0.00,meteohub,2013-01-23 00:12:00,
2013-01-22 19:17:00,20.8,5.2,30.15,NW,326,27.0,36.0,50,0.00,,,0.00,meteohub,2013-01-23 00:17:00,
2013-01-22 19:22:00,20.7,4.5,30.16,NW,314,23.0,36.0,49,0.00,,,0.00,meteohub,2013-01-23 00:22:00,
2013-01-22 19:27:00,20.7,4.5,30.15,NW,307,28.0,35.0,49,0.00,,,0.00,meteohub,2013-01-23 00:27:00,
2013-01-22 19:32:00,20.7,6.3,30.16,West,277,28.0,34.0,53,0.00,,,0.00,meteohub,2013-01-23 00:32:00,
2013-01-22 19:37:00,20.5,5.2,30.16,WNW,293,26.0,35.0,51,0.00,,,0.00,meteohub,2013-01-23 00:37:00,
2013-01-22 19:42:00,20.3,6.3,30.17,WNW,293,30.0,35.0,54,0.00,,,0.00,meteohub,2013-01-23 00:42:00,
2013-01-22 19:48:00,20.5,5.2,30.17,WNW,295,32.0,37.0,51,0.00,,,0.00,meteohub,2013-01-23 00:48:00,
2013-01-22 19:53:00,20.8,7.2,30.17,WNW,300,27.0,37.0,55,0.00,,,0.00,meteohub,2013-01-23 00:53:00,
2013-01-22 19:58:00,20.3,4.6,30.17,NW,319,27.0,37.0,50,0.00,,,0.00,meteohub,2013-01-23 00:58:00,
2013-01-22 20:03:00,20.7,7.5,30.17,NW,321,27.0,36.0,56,0.00,,,0.00,meteohub,2013-01-23 01:03:00,
2013-01-22 20:08:00,20.8,9.5,30.17,NNW,335,29.0,35.0,61,0.00,,,0.00,meteohub,2013-01-23 01:08:00,
2013-01-22 20:13:00,20.3,4.1,30.17,NNW,330,28.0,35.0,49,0.00,,,0.00,meteohub,2013-01-23 01:13:00,
2013-01-22 20:18:00,20.1,4.8,30.17,NW,308,24.0,35.0,51,0.00,,,0.00,meteohub,2013-01-23 01:18:00,
2013-01-22 20:23:00,19.9,3.9,30.17,WNW,300,32.0,35.0,49,0.00,,,0.00,meteohub,2013-01-23 01:23:00,
2013-01-22 20:28:00,19.9,4.6,30.17,NW,304,27.0,35.0,51,0.00,,,0.00,meteohub,2013-01-23 01:28:00,
2013-01-22 20:33:00,19.9,3.9,30.18,NW,312,24.0,35.0,49,0.00,,,0.00,meteohub,2013-01-23 01:33:00,
2013-01-22 20:38:00,19.9,5.2,30.18,NNW,328,34.0,35.0,52,0.00,,,0.00,meteohub,2013-01-23 01:38:00,
2013-01-22 20:43:00,19.9,6.8,30.18,NW,304,29.0,35.0,56,0.00,,,0.00,meteohub,2013-01-23 01:43:00,
2013-01-22 20:48:00,19.8,8.4,30.18,NW,304,32.0,35.0,61,0.00,,,0.00,meteohub,2013-01-23 01:48:00,
2013-01-22 20:53:00,19.9,6.8,30.19,WNW,297,26.0,38.0,56,0.00,,,0.00,meteohub,2013-01-23 01:53:00,
2013-01-22 20:58:00,19.6,4.5,30.19,NW,317,23.0,39.0,51,0.00,,,0.00,meteohub,2013-01-23 01:58:00,
2013-01-22 21:03:00,19.4,5.0,30.19,WNW,282,21.0,39.0,53,0.00,,,0.00,meteohub,2013-01-23 02:03:00,
2013-01-22 21:08:00,19.2,2.3,30.19,WNW,297,26.0,37.0,47,0.00,,,0.00,meteohub,2013-01-23 02:08:00,
2013-01-22 21:13:00,19.6,7.2,30.19,NW,310,35.0,37.0,58,0.00,,,0.00,meteohub,2013-01-23 02:13:00,
2013-01-22 21:18:00,19.2,5.7,30.19,WNW,295,29.0,39.0,55,0.00,,,0.00,meteohub,2013-01-23 02:18:00,
2013-01-22 21:23:00,19.0,3.0,30.19,WNW,300,34.0,39.0,49,0.00,,,0.00,meteohub,2013-01-23 02:23:00,
2013-01-22 21:28:00,19.2,5.4,30.20,West,267,30.0,39.0,54,0.00,,,0.00,meteohub,2013-01-23 02:28:00,
2013-01-22 21:33:00,19.0,3.0,30.20,NW,310,35.0,37.0,49,0.00,,,0.00,meteohub,2013-01-23 02:33:00,
2013-01-22 21:38:00,19.0,3.9,30.20,NW,321,29.0,39.0,51,0.00,,,0.00,meteohub,2013-01-23 02:38:00,
2013-01-22 21:43:00,19.2,5.4,30.20,WNW,291,31.0,39.0,54,0.00,,,0.00,meteohub,2013-01-23 02:43:00,
2013-01-22 21:48:00,18.7,3.6,30.20,NNW,328,31.0,39.0,51,0.00,,,0.00,meteohub,2013-01-23 02:48:00,
2013-01-22 21:53:00,18.9,5.0,30.20,NW,315,35.0,39.0,54,0.00,,,0.00,meteohub,2013-01-23 02:53:00,
2013-01-22 21:58:00,18.3,2.3,30.21,NW,304,28.0,39.0,49,0.00,,,0.00,meteohub,2013-01-23 02:58:00,
2013-01-22 22:03:00,19.0,4.3,30.21,NW,311,31.0,36.0,52,0.00,,,0.00,meteohub,2013-01-23 03:03:00,
2013-01-22 22:08:00,18.3,4.1,30.21,NW,308,33.0,36.0,53,0.00,,,0.00,meteohub,2013-01-23 03:08:00,
2013-01-22 22:13:00,18.3,4.5,30.21,NW,311,24.0,37.0,54,0.00,,,0.00,meteohub,2013-01-23 03:13:00,
2013-01-22 22:18:00,18.9,8.4,30.22,WNW,302,31.0,37.0,63,0.00,,,0.00,meteohub,2013-01-23 03:18:00,
2013-01-22 22:23:00,18.7,5.2,30.22,NW,304,26.0,37.0,55,0.00,,,0.00,meteohub,2013-01-23 03:23:00,
2013-01-22 22:28:00,18.3,4.5,30.22,NNW,328,27.0,37.0,54,0.00,,,0.00,meteohub,2013-01-23 03:28:00,
2013-01-22 22:33:00,17.8,3.9,30.22,NW,314,27.0,37.0,54,0.00,,,0.00,meteohub,2013-01-23 03:33:00,
2013-01-22 22:38:00,18.0,4.5,30.21,NW,326,31.0,37.0,55,0.00,,,0.00,meteohub,2013-01-23 03:38:00,
2013-01-22 22:43:00,18.0,4.1,30.21,NW,317,28.0,39.0,54,0.00,,,0.00,meteohub,2013-01-23 03:43:00,
2013-01-22 22:49:00,18.1,4.3,30.22,WNW,296,28.0,39.0,54,0.00,,,0.00,meteohub,2013-01-23 03:49:00,
2013-01-22 22:54:00,17.8,3.6,30.22,NW,311,22.0,39.0,53,0.00,,,0.00,meteohub,2013-01-23 03:54:00,
2013-01-22 22:59:00,17.8,3.9,30.22,NW,315,27.0,36.0,54,0.00,,,0.00,meteohub,2013-01-23 03:59:00,
2013-01-22 23:04:00,17.6,3.4,30.22,NW,304,25.0,35.0,53,0.00,,,0.00,meteohub,2013-01-23 04:04:00,
2013-01-22 23:09:00,17.4,0.7,30.22,NW,315,22.0,35.0,47,0.00,,,0.00,meteohub,2013-01-23 04:09:00,
2013-01-22 23:14:00,17.4,2.3,30.22,WNW,297,31.0,35.0,51,0.00,,,0.00,meteohub,2013-01-23 04:14:00,
2013-01-22 23:19:00,17.2,2.3,30.22,West,280,23.0,32.0,51,0.00,,,0.00,meteohub,2013-01-23 04:19:00,
2013-01-22 23:24:00,17.2,3.4,30.22,NW,325,22.0,36.0,54,0.00,,,0.00,meteohub,2013-01-23 04:24:00,
2013-01-22 23:29:00,17.1,2.8,30.22,NW,310,19.0,36.0,53,0.00,,,0.00,meteohub,2013-01-23 04:29:00,
2013-01-22 23:34:00,17.1,2.8,30.22,NW,316,29.0,36.0,53,0.00,,,0.00,meteohub,2013-01-23 04:34:00,
2013-01-22 23:39:00,17.1,3.7,30.22,NW,321,27.0,39.0,55,0.00,,,0.00,meteohub,2013-01-23 04:39:00,
2013-01-22 23:44:00,16.7,3.0,30.22,WNW,294,30.0,39.0,54,0.00,,,0.00,meteohub,2013-01-23 04:44:00,
2013-01-22 23:49:00,16.9,4.3,30.22,WNW,293,26.0,39.0,57,0.00,,,0.00,meteohub,2013-01-23 04:49:00,
2013-01-22 23:54:00,16.5,3.6,30.22,NW,316,24.0,36.0,56,0.00,,,0.00,meteohub,2013-01-23 04:54:00,
2013-01-22 23:59:00,16.7,4.1,30.22,NW,307,25.0,36.0,57,0.00,,,0.00,meteohub,2013-01-23 04:59:00,